Broadus, MT

6:28 PM MDT on April 29, 2017 (GMT -0600)
Cinch Buckle | | Change Station

Elev 3114 ft 45.49 °N, 104.98 °W | Updated 1 second ago

Clear
Clear
57.0 °F
Feels Like 57.0 °F
N
0.9
Wind Variable Wind from East
Gusts 2.5 mph

Today
High -- | Low -- °F
--% Chance of Precip.
Yesterday
High -- | Low -- °F
Precip. -- in
Pressure 30.19 in
Visibility 10.0 miles
Clouds Overcast 8000 ft
Dew Point 23 °F
Humidity 27%
Rainfall 0.00 in
Snow Depth Not available.
5:52 AM 8:06 PM
Waxing Crescent, 17% visible
METAR KW43 300015Z AUTO 26006KT 10SM OVC080 08/M03 A3019 RMK AO2
Pressure 30.19 in
Visibility 10.0 miles
Clouds Overcast 8000 ft
Dew Point 23 °F
Humidity 27%
Rainfall 0.00 in
Snow Depth Not available.
5:52 AM 8:06 PM
Waxing Crescent, 17% visible
METAR KW43 300015Z AUTO 26006KT 10SM OVC080 08/M03 A3019 RMK AO2

Get Severe Weather Alerts

Thanks for signing up!

Be on the lookout for a verification email in your inbox.

You'll start receiving the daily forecast at 8 AM.

×

10-Day Weather Forecast

Almanac

Astronomy

Apr. 29, 2017 Rise Set
Actual Time
Civil Twilight
Nautical Twilight
Astronomical Twilight
Moon
Length of Visible Light
Length of Day
Tomorrow will be .
, % of the Moon is Illuminated

Today's Extremes

State Highs State Lows

Community

WunderPhotos

WunderBlog® & News

Nearby

Air Quality

  Air Quality AQ Index Pollutant
Not available.

Snow Depth

Station Depth Elevation

Earthquake Activity

City Distance Mag. Time & Date
Minimum magnitude displayed is 2.5.

Coastal Water Temperatures

Place Temperature

Stations

Nearby Weather Stations

Station Location Temp. Windchill Dew Point Humidity Wind Precip. Elev Updated Type
                   

Watches & Warnings

There are currently no watches in effect.